McGuire AFB, NJ

11:08 PM EDT on October 23, 2017 (GMT -0400)
McGuire Air Force Base

Weather History for KWRI - December, 2013

Change the Weather History Date:

Sunday, December 22, 2013

  Actual Average Record
Temperature  
Mean Temperature 66 °F -  
Max Temperature 72 °F 41 °F 72 °F (2013)
Min Temperature 61 °F 24 °F 14 °F (2008)
Cooling Degree Days 2    
Growing Degree Days 16 (Base 50)    
Moisture  
Dew Point 61 °F    
Average Humidity 83    
Maximum Humidity 95    
Minimum Humidity 71    
Precipitation  
Precipitation 0.04 in - - ()
Sea Level Pressure  
Sea Level Pressure 29.90 in    
Wind  
Wind Speed 16 mph (SSW)    
Max Wind Speed 29 mph    
Max Gust Speed 44 mph    
Visibility 10 miles    
Events Rain    
Averages and records for this station are not official NWS values.
T = Trace of Precipitation, MM = Missing Value Source: NWS Daily Summary

Daily Weather History Graph

Daily Weather History Graph

Search for Another Location

Airport or City:

Trip Planner

Search our weather history database for the weather conditions in past years. The results will help you decide how hot, cold, wet, or windy it might be!

Date:

Astronomy

Dec. 22, 2013 Rise Set
Actual Time 7:17 AM EST 4:36 PM EST
Civil Twilight 6:46 AM EST 5:07 PM EST
Nautical Twilight 6:12 AM EST 5:41 PM EST
Astronomical Twilight 5:39 AM EST 6:14 PM EST
Moon 9:47 PM EST (12/22) 10:12 AM EST (12/22)
Length of Visible Light 10h 20m
Length of Day
9h 19m
Waning Gibbous, 77% of the Moon is Illuminated
Dec 22
Waning Gibbous
Dec 25
Last Quarter
Jan 1
New
Jan 7
First Quarter
Jan 15
Full

Hourly Weather History & Observations

Time (EST) Temp. Dew Point Humidity Pressure Visibility Wind Dir Wind Speed Gust Speed Precip Events Conditions
12:58 AM 64.6 °F 59.4 °F 83% 29.90 in 10.0 mi SSW 13.8 mph - N/A   Mostly Cloudy
1:49 AM 64.4 °F 60.8 °F 88% 29.88 in 10.0 mi SSW 18.4 mph 26.5 mph N/A   Mostly Cloudy
1:52 AM 64.4 °F 60.8 °F 88% 29.88 in 10.0 mi SSW 15.0 mph 26.5 mph N/A   Mostly Cloudy
1:55 AM 64.4 °F 60.8 °F 88% 29.88 in 10.0 mi SSW 17.3 mph 26.5 mph N/A   Mostly Cloudy
1:58 AM 64.4 °F 60.8 °F 88% 29.90 in 10.0 mi SSW 13.8 mph 24.2 mph N/A   Scattered Clouds
2:58 AM 65.3 °F 61.3 °F 87% 29.88 in 10.0 mi South 19.6 mph 32.2 mph N/A   Overcast
3:01 AM 64.4 °F 60.8 °F 88% 29.87 in 10.0 mi South 17.3 mph 27.6 mph N/A Rain Light Rain
3:13 AM 64.4 °F 60.8 °F 88% 29.86 in 10.0 mi SSW 16.1 mph 27.6 mph N/A   Mostly Cloudy
3:58 AM 66.4 °F 61.7 °F 85% 29.81 in 10.0 mi South 28.8 mph 43.7 mph 0.00 in   Overcast
4:58 AM 66.9 °F 61.5 °F 83% 29.88 in 10.0 mi SSW 20.7 mph 35.7 mph N/A   Mostly Cloudy
5:01 AM 66.2 °F 60.8 °F 83% 29.87 in 10.0 mi South 26.5 mph 33.4 mph N/A   Overcast
5:16 AM 66.2 °F 60.8 °F 83% 29.85 in 10.0 mi South 18.4 mph 26.5 mph N/A   Mostly Cloudy
5:22 AM 66.2 °F 60.8 °F 83% 29.86 in 10.0 mi South 20.7 mph 26.5 mph N/A   Mostly Cloudy
5:25 AM 66.2 °F 60.8 °F 83% 29.86 in 10.0 mi South 15.0 mph 25.3 mph N/A   Mostly Cloudy
5:49 AM 66.2 °F 60.8 °F 83% 29.83 in 10.0 mi South 21.9 mph 28.8 mph N/A   Mostly Cloudy
5:58 AM 65.5 °F 61.5 °F 87% 29.83 in 10.0 mi South 20.7 mph 31.1 mph N/A   Mostly Cloudy
6:37 AM 66.2 °F 60.8 °F 83% 29.84 in 10.0 mi SSW 15.0 mph 35.7 mph N/A   Mostly Cloudy
6:43 AM 66.2 °F 60.8 °F 83% 29.85 in 10.0 mi SSW 20.7 mph 32.2 mph N/A   Mostly Cloudy
6:58 AM 66.6 °F 61.3 °F 83% 29.86 in 10.0 mi SSW 18.4 mph 29.9 mph N/A   Mostly Cloudy
7:25 AM 66.2 °F 60.8 °F 83% 29.86 in 10.0 mi SSW 20.7 mph 26.5 mph N/A   Mostly Cloudy
7:31 AM 66.2 °F 60.8 °F 83% 29.86 in 10.0 mi SSW 16.1 mph 26.5 mph N/A   Scattered Clouds
7:58 AM 66.4 °F 61.3 °F 84% 29.88 in 10.0 mi South 17.3 mph - N/A   Scattered Clouds
8:58 AM 69.8 °F 62.1 °F 76% 29.91 in 10.0 mi SSW 16.1 mph 27.6 mph N/A   Scattered Clouds
9:13 AM 69.8 °F 62.6 °F 78% 29.90 in 10.0 mi SSW 23.0 mph 31.1 mph N/A   Mostly Cloudy
9:19 AM 69.8 °F 62.6 °F 78% 29.90 in 10.0 mi SSW 21.9 mph 31.1 mph N/A   Mostly Cloudy
9:34 AM 71.6 °F 62.6 °F 73% 29.91 in 10.0 mi SW 18.4 mph 33.4 mph N/A   Mostly Cloudy
9:58 AM 72.1 °F 62.4 °F 71% 29.92 in 10.0 mi SW 19.6 mph 31.1 mph N/A   Mostly Cloudy
10:01 AM 71.6 °F 62.6 °F 73% 29.92 in 10.0 mi SW 19.6 mph 31.1 mph N/A   Mostly Cloudy
10:29 AM 71.6 °F 62.6 °F 73% 29.95 in 7.0 mi WSW 19.6 mph 29.9 mph N/A Rain Light Rain
10:30 AM 71.6 °F 62.6 °F 73% 29.95 in 7.0 mi West 19.6 mph 29.9 mph N/A Rain Light Rain
10:34 AM 69.8 °F 64.4 °F 83% 29.96 in 4.0 mi WNW 18.4 mph 29.9 mph N/A Rain Rain
10:43 AM 66.2 °F 64.4 °F 94% 29.97 in 2.5 mi West 13.8 mph 20.7 mph N/A Rain Heavy Rain
10:49 AM 64.4 °F 62.6 °F 94% 29.97 in 3.0 mi West 13.8 mph 20.7 mph N/A Rain Rain
10:58 AM 63.9 °F 62.4 °F 95% 29.97 in 6.0 mi SW 8.1 mph - 0.02 in Rain Light Rain
11:05 AM 64.4 °F 62.6 °F 94% 29.95 in 10.0 mi SW 8.1 mph - N/A   Overcast
11:58 AM 66.6 °F 64.2 °F 92% 29.95 in 10.0 mi SW 10.4 mph - 0.01 in   Partly Cloudy
12:58 PM 66.9 °F 63.7 °F 89% 29.92 in 10.0 mi South 8.1 mph - N/A   Mostly Cloudy
1:37 PM 68.0 °F 62.6 °F 83% 29.91 in 10.0 mi South 9.2 mph - N/A Rain Light Rain
1:41 PM 68.0 °F 62.6 °F 83% 29.91 in 10.0 mi South 10.4 mph - N/A Rain Light Rain
1:53 PM 66.2 °F 62.6 °F 88% 29.91 in 10.0 mi South 11.5 mph - N/A Rain Light Rain
1:58 PM 66.0 °F 61.9 °F 86% 29.92 in 10.0 mi South 11.5 mph - 0.00 in Rain Light Rain
2:01 PM 66.2 °F 62.6 °F 88% 29.90 in 10.0 mi South 11.5 mph - N/A Rain Light Rain
2:04 PM 66.2 °F 60.8 °F 83% 29.90 in 10.0 mi South 12.7 mph - N/A Rain Light Rain
2:19 PM 66.2 °F 60.8 °F 83% 29.89 in 10.0 mi South 13.8 mph - N/A Rain Light Rain
2:29 PM 66.2 °F 60.8 °F 83% 29.90 in 10.0 mi South 15.0 mph - N/A   Clear
2:58 PM 65.5 °F 59.9 °F 82% 29.89 in 10.0 mi South 15.0 mph 20.7 mph 0.01 in Rain Light Rain
2:59 PM 66.2 °F 59.0 °F 78% 29.88 in 10.0 mi South 15.0 mph 20.7 mph N/A   Clear
3:58 PM 65.5 °F 56.7 °F 73% 29.90 in 10.0 mi South 15.0 mph - 0.00 in   Overcast
4:58 PM 64.4 °F 56.3 °F 75% 29.94 in 10.0 mi SSW 11.5 mph - N/A   Overcast
5:58 PM 63.7 °F 57.6 °F 80% 29.93 in 10.0 mi South 12.7 mph 20.7 mph N/A   Overcast
6:58 PM 62.8 °F 56.7 °F 80% 29.92 in 10.0 mi South 16.1 mph 25.3 mph N/A   Clear
7:00 PM 62.6 °F 57.2 °F 82% 29.91 in 10.0 mi South 16.1 mph - N/A Rain Light Rain
7:14 PM 62.6 °F 57.2 °F 82% 29.90 in 10.0 mi South 18.4 mph 25.3 mph N/A   Partly Cloudy
7:27 PM 62.6 °F 57.2 °F 82% 29.93 in 10.0 mi SSW 12.7 mph - N/A   Partly Cloudy
7:58 PM 62.1 °F 57.0 °F 84% 29.97 in 10.0 mi SSW 10.4 mph - 0.00 in   Clear
8:58 PM 62.8 °F 57.0 °F 81% 29.96 in 10.0 mi SW 12.7 mph - N/A   Partly Cloudy
9:58 PM 62.4 °F 57.4 °F 84% 29.96 in 10.0 mi SSW 10.4 mph - N/A   Clear
10:58 PM 61.5 °F 57.4 °F 86% 29.97 in 10.0 mi SSW 9.2 mph - N/A   Partly Cloudy
11:58 PM 61.0 °F 57.4 °F 88% 29.96 in 10.0 mi SSW 9.2 mph - N/A   Partly Cloudy